sensor_id;sensor_type;location;lat;lon;timestamp;pressure;altitude;pressure_sealevel;temperature;humidity
3176;BME280;1599;51.564;6.990;2024-01-25T00:01:34;102089.22;;;9.38;100.00
3176;BME280;1599;51.564;6.990;2024-01-25T00:04:00;102083.34;;;9.41;100.00
3176;BME280;1599;51.564;6.990;2024-01-25T00:06:26;102097.59;;;9.29;100.00
3176;BME280;1599;51.564;6.990;2024-01-25T00:08:52;102098.50;;;9.37;100.00
3176;BME280;1599;51.564;6.990;2024-01-25T00:11:17;102100.34;;;9.29;100.00
3176;BME280;1599;51.564;6.990;2024-01-25T00:13:43;102094.59;;;9.24;100.00
3176;BME280;1599;51.564;6.990;2024-01-25T00:16:09;102099.22;;;9.24;100.00
3176;BME280;1599;51.564;6.990;2024-01-25T00:18:35;102093.28;;;9.20;100.00
3176;BME280;1599;51.564;6.990;2024-01-25T00:21:01;102093.75;;;9.24;100.00
3176;BME280;1599;51.564;6.990;2024-01-25T00:23:27;102098.38;;;9.23;100.00
3176;BME280;1599;51.564;6.990;2024-01-25T00:25:53;102101.75;;;9.25;100.00
3176;BME280;1599;51.564;6.990;2024-01-25T00:28:19;102091.63;;;9.19;100.00
3176;BME280;1599;51.564;6.990;2024-01-25T00:30:45;102100.88;;;9.18;100.00
3176;BME280;1599;51.564;6.990;2024-01-25T00:33:10;102095.28;;;9.05;100.00
3176;BME280;1599;51.564;6.990;2024-01-25T00:35:36;102101.94;;;8.96;100.00
3176;BME280;1599;51.564;6.990;2024-01-25T00:38:02;102101.56;;;8.78;100.00
3176;BME280;1599;51.564;6.990;2024-01-25T00:40:28;102085.41;;;8.90;100.00
3176;BME280;1599;51.564;6.990;2024-01-25T00:42:54;102085.69;;;8.95;100.00
3176;BME280;1599;51.564;6.990;2024-01-25T00:45:22;102091.75;;;8.90;100.00
3176;BME280;1599;51.564;6.990;2024-01-25T00:47:49;102097.09;;;8.77;100.00
3176;BME280;1599;51.564;6.990;2024-01-25T00:50:16;102096.50;;;8.60;100.00
3176;BME280;1599;51.564;6.990;2024-01-25T00:52:51;102097.66;;;8.51;100.00
3176;BME280;1599;51.564;6.990;2024-01-25T00:55:18;102091.72;;;8.48;100.00
3176;BME280;1599;51.564;6.990;2024-01-25T00:57:44;102095.09;;;8.50;100.00
3176;BME280;1599;51.564;6.990;2024-01-25T01:00:11;102106.88;;;8.29;100.00
3176;BME280;1599;51.564;6.990;2024-01-25T01:02:43;102100.25;;;8.24;100.00
3176;BME280;1599;51.564;6.990;2024-01-25T01:05:11;102108.16;;;8.19;100.00
3176;BME280;1599;51.564;6.990;2024-01-25T01:07:38;102112.81;;;8.18;100.00
3176;BME280;1599;51.564;6.990;2024-01-25T01:10:07;102114.44;;;8.13;100.00
3176;BME280;1599;51.564;6.990;2024-01-25T01:12:33;102109.63;;;8.00;100.00
3176;BME280;1599;51.564;6.990;2024-01-25T01:14:58;102109.44;;;7.87;100.00
3176;BME280;1599;51.564;6.990;2024-01-25T01:17:24;102112.34;;;7.85;100.00
3176;BME280;1599;51.564;6.990;2024-01-25T01:19:50;102112.72;;;7.82;100.00
3176;BME280;1599;51.564;6.990;2024-01-25T01:22:15;102124.16;;;7.86;100.00
3176;BME280;1599;51.564;6.990;2024-01-25T01:24:41;102121.06;;;7.74;100.00
3176;BME280;1599;51.564;6.990;2024-01-25T01:27:07;102118.78;;;7.78;100.00
3176;BME280;1599;51.564;6.990;2024-01-25T01:29:33;102119.53;;;7.86;100.00
3176;BME280;1599;51.564;6.990;2024-01-25T01:31:58;102122.44;;;7.85;100.00
3176;BME280;1599;51.564;6.990;2024-01-25T01:34:24;102118.88;;;7.84;100.00
3176;BME280;1599;51.564;6.990;2024-01-25T01:36:50;102125.56;;;7.96;100.00
3176;BME280;1599;51.564;6.990;2024-01-25T01:39:16;102132.06;;;7.95;100.00
3176;BME280;1599;51.564;6.990;2024-01-25T01:41:41;102130.66;;;7.99;100.00
3176;BME280;1599;51.564;6.990;2024-01-25T01:44:07;102140.88;;;8.05;100.00
3176;BME280;1599;51.564;6.990;2024-01-25T01:46:35;102135.09;;;8.15;100.00
3176;BME280;1599;51.564;6.990;2024-01-25T01:49:12;102132.75;;;8.27;100.00
3176;BME280;1599;51.564;6.990;2024-01-25T01:51:38;102152.38;;;8.30;100.00
3176;BME280;1599;51.564;6.990;2024-01-25T01:54:08;102152.88;;;8.34;100.00
3176;BME280;1599;51.564;6.990;2024-01-25T01:56:35;102147.47;;;8.26;100.00
3176;BME280;1599;51.564;6.990;2024-01-25T01:59:05;102148.41;;;8.33;100.00
3176;BME280;1599;51.564;6.990;2024-01-25T02:01:32;102152.59;;;8.29;100.00
3176;BME280;1599;51.564;6.990;2024-01-25T02:03:58;102152.28;;;8.38;100.00
3176;BME280;1599;51.564;6.990;2024-01-25T02:06:24;102153.78;;;8.26;100.00
3176;BME280;1599;51.564;6.990;2024-01-25T02:08:50;102156.44;;;8.34;100.00
3176;BME280;1599;51.564;6.990;2024-01-25T02:11:19;102160.81;;;8.29;100.00
3176;BME280;1599;51.564;6.990;2024-01-25T02:13:44;102161.72;;;8.21;100.00
3176;BME280;1599;51.564;6.990;2024-01-25T02:16:10;102162.38;;;8.08;100.00
3176;BME280;1599;51.564;6.990;2024-01-25T02:18:36;102170.66;;;8.00;100.00
3176;BME280;1599;51.564;6.990;2024-01-25T02:21:02;102169.94;;;7.92;100.00
3176;BME280;1599;51.564;6.990;2024-01-25T02:23:28;102165.00;;;7.87;100.00
3176;BME280;1599;51.564;6.990;2024-01-25T02:25:53;102169.34;;;7.96;100.00
3176;BME280;1599;51.564;6.990;2024-01-25T02:28:19;102167.84;;;7.79;100.00
3176;BME280;1599;51.564;6.990;2024-01-25T02:30:45;102168.59;;;7.73;100.00
3176;BME280;1599;51.564;6.990;2024-01-25T02:33:10;102171.66;;;7.56;100.00
3176;BME280;1599;51.564;6.990;2024-01-25T02:35:37;102175.34;;;7.48;100.00
3176;BME280;1599;51.564;6.990;2024-01-25T02:38:03;102173.63;;;7.47;100.00
3176;BME280;1599;51.564;6.990;2024-01-25T02:40:29;102176.44;;;7.54;100.00
3176;BME280;1599;51.564;6.990;2024-01-25T02:42:55;102172.28;;;7.43;100.00
3176;BME280;1599;51.564;6.990;2024-01-25T02:45:22;102164.47;;;7.40;100.00
3176;BME280;1599;51.564;6.990;2024-01-25T02:47:48;102168.72;;;7.20;100.00
3176;BME280;1599;51.564;6.990;2024-01-25T02:50:14;102171.03;;;7.08;100.00
3176;BME280;1599;51.564;6.990;2024-01-25T02:52:40;102176.75;;;6.99;100.00
3176;BME280;1599;51.564;6.990;2024-01-25T02:55:07;102177.16;;;6.88;100.00
3176;BME280;1599;51.564;6.990;2024-01-25T02:57:32;102172.56;;;7.11;100.00
3176;BME280;1599;51.564;6.990;2024-01-25T02:59:58;102184.22;;;7.05;100.00
3176;BME280;1599;51.564;6.990;2024-01-25T03:02:24;102185.16;;;7.12;100.00
3176;BME280;1599;51.564;6.990;2024-01-25T03:04:50;102196.09;;;7.12;100.00
3176;BME280;1599;51.564;6.990;2024-01-25T03:07:16;102192.34;;;7.13;100.00
3176;BME280;1599;51.564;6.990;2024-01-25T03:09:41;102209.91;;;6.96;100.00
3176;BME280;1599;51.564;6.990;2024-01-25T03:12:07;102202.59;;;6.88;100.00
3176;BME280;1599;51.564;6.990;2024-01-25T03:14:33;102212.06;;;6.77;100.00
3176;BME280;1599;51.564;6.990;2024-01-25T03:16:58;102212.09;;;6.69;100.00
3176;BME280;1599;51.564;6.990;2024-01-25T03:19:26;102209.09;;;6.56;100.00
3176;BME280;1599;51.564;6.990;2024-01-25T03:21:52;102217.28;;;6.56;100.00
3176;BME280;1599;51.564;6.990;2024-01-25T03:24:18;102221.53;;;6.59;100.00
3176;BME280;1599;51.564;6.990;2024-01-25T03:26:44;102225.50;;;6.48;100.00
3176;BME280;1599;51.564;6.990;2024-01-25T03:29:10;102222.94;;;6.47;100.00
3176;BME280;1599;51.564;6.990;2024-01-25T03:31:36;102227.84;;;6.59;100.00
3176;BME280;1599;51.564;6.990;2024-01-25T03:34:03;102224.53;;;6.72;100.00
3176;BME280;1599;51.564;6.990;2024-01-25T03:36:28;102219.81;;;6.58;100.00
3176;BME280;1599;51.564;6.990;2024-01-25T03:38:54;102219.34;;;6.54;100.00
3176;BME280;1599;51.564;6.990;2024-01-25T03:41:20;102216.25;;;6.49;100.00
3176;BME280;1599;51.564;6.990;2024-01-25T03:43:46;102224.00;;;6.38;100.00
3176;BME280;1599;51.564;6.990;2024-01-25T03:46:12;102223.19;;;6.29;100.00
3176;BME280;1599;51.564;6.990;2024-01-25T03:48:38;102222.72;;;6.17;100.00
3176;BME280;1599;51.564;6.990;2024-01-25T03:51:04;102220.47;;;6.21;100.00
3176;BME280;1599;51.564;6.990;2024-01-25T03:53:30;102219.81;;;6.19;100.00
3176;BME280;1599;51.564;6.990;2024-01-25T03:55:55;102222.88;;;6.16;100.00
3176;BME280;1599;51.564;6.990;2024-01-25T03:58:21;102223.25;;;6.05;100.00
3176;BME280;1599;51.564;6.990;2024-01-25T04:00:47;102220.88;;;6.10;100.00
3176;BME280;1599;51.564;6.990;2024-01-25T04:03:14;102215.41;;;6.10;100.00
3176;BME280;1599;51.564;6.990;2024-01-25T04:05:39;102219.84;;;6.03;100.00
3176;BME280;1599;51.564;6.990;2024-01-25T04:08:06;102215.78;;;5.91;100.00
3176;BME280;1599;51.564;6.990;2024-01-25T04:10:32;102215.47;;;5.86;100.00
3176;BME280;1599;51.564;6.990;2024-01-25T04:12:58;102222.59;;;5.87;100.00
3176;BME280;1599;51.564;6.990;2024-01-25T04:15:26;102228.25;;;5.85;100.00
3176;BME280;1599;51.564;6.990;2024-01-25T04:17:52;102227.38;;;5.85;100.00
3176;BME280;1599;51.564;6.990;2024-01-25T04:20:19;102224.16;;;5.73;100.00
3176;BME280;1599;51.564;6.990;2024-01-25T04:22:45;102233.00;;;5.67;100.00
3176;BME280;1599;51.564;6.990;2024-01-25T04:25:11;102243.03;;;5.58;100.00
3176;BME280;1599;51.564;6.990;2024-01-25T04:27:40;102246.63;;;5.51;100.00
3176;BME280;1599;51.564;6.990;2024-01-25T04:30:07;102249.19;;;5.44;100.00
3176;BME280;1599;51.564;6.990;2024-01-25T04:32:33;102257.03;;;5.39;100.00
3176;BME280;1599;51.564;6.990;2024-01-25T04:34:59;102254.28;;;5.31;100.00
3176;BME280;1599;51.564;6.990;2024-01-25T04:37:25;102248.50;;;5.26;100.00
3176;BME280;1599;51.564;6.990;2024-01-25T04:39:51;102248.84;;;5.23;100.00
3176;BME280;1599;51.564;6.990;2024-01-25T04:42:17;102247.44;;;5.19;100.00
3176;BME280;1599;51.564;6.990;2024-01-25T04:44:43;102241.66;;;5.22;100.00
3176;BME280;1599;51.564;6.990;2024-01-25T04:47:09;102248.97;;;5.22;100.00
3176;BME280;1599;51.564;6.990;2024-01-25T04:49:36;102247.44;;;5.19;100.00
3176;BME280;1599;51.564;6.990;2024-01-25T04:52:02;102256.31;;;5.21;100.00
3176;BME280;1599;51.564;6.990;2024-01-25T04:54:28;102256.66;;;5.18;100.00
3176;BME280;1599;51.564;6.990;2024-01-25T04:56:54;102257.00;;;5.15;100.00
3176;BME280;1599;51.564;6.990;2024-01-25T04:59:20;102257.66;;;5.09;100.00
3176;BME280;1599;51.564;6.990;2024-01-25T05:01:46;102264.44;;;4.97;100.00
3176;BME280;1599;51.564;6.990;2024-01-25T05:04:16;102257.59;;;4.93;100.00
3176;BME280;1599;51.564;6.990;2024-01-25T05:06:42;102258.25;;;4.79;100.00
3176;BME280;1599;51.564;6.990;2024-01-25T05:09:07;102243.25;;;4.75;100.00
3176;BME280;1599;51.564;6.990;2024-01-25T05:11:39;102245.94;;;4.67;100.00
3176;BME280;1599;51.564;6.990;2024-01-25T05:14:05;102252.25;;;4.67;100.00
3176;BME280;1599;51.564;6.990;2024-01-25T05:16:31;102254.97;;;4.67;100.00
3176;BME280;1599;51.564;6.990;2024-01-25T05:18:57;102252.78;;;4.71;100.00
3176;BME280;1599;51.564;6.990;2024-01-25T05:21:23;102252.78;;;4.71;100.00
3176;BME280;1599;51.564;6.990;2024-01-25T05:23:48;102242.44;;;4.74;100.00
3176;BME280;1599;51.564;6.990;2024-01-25T05:26:15;102250.09;;;4.79;100.00
3176;BME280;1599;51.564;6.990;2024-01-25T05:28:41;102249.06;;;4.80;100.00
3176;BME280;1599;51.564;6.990;2024-01-25T05:31:07;102256.22;;;4.81;100.00
3176;BME280;1599;51.564;6.990;2024-01-25T05:33:39;102255.19;;;4.74;100.00
3176;BME280;1599;51.564;6.990;2024-01-25T05:36:05;102245.13;;;4.66;100.00
3176;BME280;1599;51.564;6.990;2024-01-25T05:38:31;102251.38;;;4.59;100.00
3176;BME280;1599;51.564;6.990;2024-01-25T05:40:58;102258.84;;;4.57;100.00
3176;BME280;1599;51.564;6.990;2024-01-25T05:43:24;102255.78;;;4.60;100.00
3176;BME280;1599;51.564;6.990;2024-01-25T05:45:50;102260.56;;;4.58;100.00
3176;BME280;1599;51.564;6.990;2024-01-25T05:48:16;102253.34;;;4.49;100.00
3176;BME280;1599;51.564;6.990;2024-01-25T05:50:41;102258.47;;;4.52;100.00
3176;BME280;1599;51.564;6.990;2024-01-25T05:53:07;102251.00;;;4.46;100.00
3176;BME280;1599;51.564;6.990;2024-01-25T05:55:33;102254.03;;;4.43;100.00
3176;BME280;1599;51.564;6.990;2024-01-25T05:57:58;102252.19;;;4.51;100.00
3176;BME280;1599;51.564;6.990;2024-01-25T06:00:24;102261.03;;;4.45;100.00
3176;BME280;1599;51.564;6.990;2024-01-25T06:02:50;102255.72;;;4.44;100.00
3176;BME280;1599;51.564;6.990;2024-01-25T06:05:16;102267.31;;;4.46;100.00
3176;BME280;1599;51.564;6.990;2024-01-25T06:07:41;102271.72;;;4.47;100.00
3176;BME280;1599;51.564;6.990;2024-01-25T06:10:08;102276.53;;;4.53;100.00
3176;BME280;1599;51.564;6.990;2024-01-25T06:12:34;102266.97;;;4.41;100.00
3176;BME280;1599;51.564;6.990;2024-01-25T06:14:59;102272.72;;;4.38;100.00
3176;BME280;1599;51.564;6.990;2024-01-25T06:17:25;102269.28;;;4.35;100.00
3176;BME280;1599;51.564;6.990;2024-01-25T06:19:51;102277.06;;;4.30;100.00
3176;BME280;1599;51.564;6.990;2024-01-25T06:22:17;102279.44;;;4.25;100.00
3176;BME280;1599;51.564;6.990;2024-01-25T06:24:43;102270.41;;;4.25;100.00
3176;BME280;1599;51.564;6.990;2024-01-25T06:27:12;102271.88;;;4.11;100.00
3176;BME280;1599;51.564;6.990;2024-01-25T06:29:37;102284.06;;;4.07;100.00
3176;BME280;1599;51.564;6.990;2024-01-25T06:32:04;102278.19;;;4.12;100.00
3176;BME280;1599;51.564;6.990;2024-01-25T06:34:29;102274.22;;;4.06;100.00
3176;BME280;1599;51.564;6.990;2024-01-25T06:36:55;102277.63;;;4.08;100.00
3176;BME280;1599;51.564;6.990;2024-01-25T06:39:21;102276.59;;;4.01;100.00
3176;BME280;1599;51.564;6.990;2024-01-25T06:41:48;102284.88;;;4.00;100.00
3176;BME280;1599;51.564;6.990;2024-01-25T06:44:13;102286.06;;;3.97;100.00
3176;BME280;1599;51.564;6.990;2024-01-25T06:46:39;102286.22;;;3.96;100.00
3176;BME280;1599;51.564;6.990;2024-01-25T06:49:05;102290.44;;;3.90;100.00
3176;BME280;1599;51.564;6.990;2024-01-25T06:51:30;102288.72;;;3.89;100.00
3176;BME280;1599;51.564;6.990;2024-01-25T06:53:57;102295.88;;;3.90;100.00
3176;BME280;1599;51.564;6.990;2024-01-25T06:56:23;102304.16;;;3.89;100.00
3176;BME280;1599;51.564;6.990;2024-01-25T06:58:49;102304.72;;;3.92;100.00
3176;BME280;1599;51.564;6.990;2024-01-25T07:01:23;102306.75;;;3.90;100.00
3176;BME280;1599;51.564;6.990;2024-01-25T07:03:49;102315.19;;;3.87;100.00
3176;BME280;1599;51.564;6.990;2024-01-25T07:06:18;102312.19;;;3.90;100.00
3176;BME280;1599;51.564;6.990;2024-01-25T07:08:45;102317.53;;;3.82;100.00
3176;BME280;1599;51.564;6.990;2024-01-25T07:11:11;102318.22;;;3.84;100.00
3176;BME280;1599;51.564;6.990;2024-01-25T07:13:37;102324.22;;;3.88;100.00
3176;BME280;1599;51.564;6.990;2024-01-25T07:16:03;102320.41;;;3.98;100.00
3176;BME280;1599;51.564;6.990;2024-01-25T07:18:28;102317.00;;;3.96;100.00
3176;BME280;1599;51.564;6.990;2024-01-25T07:20:54;102321.41;;;3.97;100.00
3176;BME280;1599;51.564;6.990;2024-01-25T07:23:21;102317.75;;;4.06;100.00
3176;BME280;1599;51.564;6.990;2024-01-25T07:25:47;102318.50;;;4.16;100.00
3176;BME280;1599;51.564;6.990;2024-01-25T07:28:13;102323.63;;;4.19;100.00
3176;BME280;1599;51.564;6.990;2024-01-25T07:30:39;102316.44;;;4.18;100.00
3176;BME280;1599;51.564;6.990;2024-01-25T07:33:05;102319.59;;;4.31;100.00
3176;BME280;1599;51.564;6.990;2024-01-25T07:35:31;102323.00;;;4.33;100.00
3176;BME280;1599;51.564;6.990;2024-01-25T07:37:57;102317.31;;;4.45;100.00
3176;BME280;1599;51.564;6.990;2024-01-25T07:40:23;102321.03;;;4.44;100.00
3176;BME280;1599;51.564;6.990;2024-01-25T07:42:48;102320.69;;;4.47;100.00
3176;BME280;1599;51.564;6.990;2024-01-25T07:45:14;102327.31;;;4.44;100.00
3176;BME280;1599;51.564;6.990;2024-01-25T07:47:43;102331.91;;;4.44;100.00
3176;BME280;1599;51.564;6.990;2024-01-25T07:50:10;102326.16;;;4.47;100.00
3176;BME280;1599;51.564;6.990;2024-01-25T07:52:35;102331.59;;;4.47;100.00
3176;BME280;1599;51.564;6.990;2024-01-25T07:55:01;102343.16;;;4.49;100.00
3176;BME280;1599;51.564;6.990;2024-01-25T07:57:27;102348.97;;;4.54;100.00
3176;BME280;1599;51.564;6.990;2024-01-25T07:59:52;102346.66;;;4.59;100.00
3176;BME280;1599;51.564;6.990;2024-01-25T08:02:18;102349.72;;;4.64;100.00
3176;BME280;1599;51.564;6.990;2024-01-25T08:04:44;102349.38;;;4.67;100.00
3176;BME280;1599;51.564;6.990;2024-01-25T08:07:10;102347.38;;;4.69;100.00
3176;BME280;1599;51.564;6.990;2024-01-25T08:09:36;102354.50;;;4.70;100.00
3176;BME280;1599;51.564;6.990;2024-01-25T08:12:02;102362.03;;;4.76;100.00
3176;BME280;1599;51.564;6.990;2024-01-25T08:14:27;102350.16;;;4.77;100.00
3176;BME280;1599;51.564;6.990;2024-01-25T08:16:53;102353.22;;;4.82;100.00
3176;BME280;1599;51.564;6.990;2024-01-25T08:19:20;102358.31;;;4.85;100.00
3176;BME280;1599;51.564;6.990;2024-01-25T08:21:46;102353.41;;;4.88;100.00
3176;BME280;1599;51.564;6.990;2024-01-25T08:24:12;102357.34;;;4.94;100.00
3176;BME280;1599;51.564;6.990;2024-01-25T08:26:38;102355.00;;;4.99;100.00
3176;BME280;1599;51.564;6.990;2024-01-25T08:29:04;102356.38;;;5.03;100.00
3176;BME280;1599;51.564;6.990;2024-01-25T08:31:30;102358.94;;;5.05;100.00
3176;BME280;1599;51.564;6.990;2024-01-25T08:33:55;102370.00;;;5.11;100.00
3176;BME280;1599;51.564;6.990;2024-01-25T08:36:21;102364.78;;;5.18;100.00
3176;BME280;1599;51.564;6.990;2024-01-25T08:38:48;102369.72;;;5.22;100.00
3176;BME280;1599;51.564;6.990;2024-01-25T08:41:13;102357.13;;;5.29;100.00
3176;BME280;1599;51.564;6.990;2024-01-25T08:43:41;102361.91;;;5.35;100.00
3176;BME280;1599;51.564;6.990;2024-01-25T08:46:07;102362.13;;;5.42;100.00
3176;BME280;1599;51.564;6.990;2024-01-25T08:48:34;102358.91;;;5.54;100.00
3176;BME280;1599;51.564;6.990;2024-01-25T08:50:59;102359.59;;;5.56;100.00
3176;BME280;1599;51.564;6.990;2024-01-25T08:53:25;102355.84;;;5.57;100.00
3176;BME280;1599;51.564;6.990;2024-01-25T08:55:54;102355.84;;;5.57;100.00
3176;BME280;1599;51.564;6.990;2024-01-25T08:58:21;102359.94;;;5.61;100.00
3176;BME280;1599;51.564;6.990;2024-01-25T09:00:47;102348.38;;;5.68;100.00
3176;BME280;1599;51.564;6.990;2024-01-25T09:03:15;102345.81;;;5.74;100.00
3176;BME280;1599;51.564;6.990;2024-01-25T09:05:40;102341.91;;;5.85;100.00
3176;BME280;1599;51.564;6.990;2024-01-25T09:08:12;102341.78;;;5.94;100.00
3176;BME280;1599;51.564;6.990;2024-01-25T09:10:40;102347.72;;;6.06;100.00
3176;BME280;1599;51.564;6.990;2024-01-25T09:13:06;102338.53;;;6.15;100.00
3176;BME280;1599;51.564;6.990;2024-01-25T09:15:32;102339.19;;;6.25;100.00
3176;BME280;1599;51.564;6.990;2024-01-25T09:17:58;102334.91;;;6.39;100.00
3176;BME280;1599;51.564;6.990;2024-01-25T09:20:24;102329.25;;;6.48;100.00
3176;BME280;1599;51.564;6.990;2024-01-25T09:22:50;102318.97;;;6.58;100.00
3176;BME280;1599;51.564;6.990;2024-01-25T09:25:15;102331.94;;;6.64;100.00
3176;BME280;1599;51.564;6.990;2024-01-25T09:27:41;102338.38;;;6.71;100.00
3176;BME280;1599;51.564;6.990;2024-01-25T09:30:08;102341.47;;;6.68;100.00
3176;BME280;1599;51.564;6.990;2024-01-25T09:32:34;102351.34;;;6.77;100.00
3176;BME280;1599;51.564;6.990;2024-01-25T09:34:59;102363.91;;;6.95;100.00
3176;BME280;1599;51.564;6.990;2024-01-25T09:37:25;102365.91;;;7.09;100.00
3176;BME280;1599;51.564;6.990;2024-01-25T09:39:51;102374.78;;;7.11;100.00
3176;BME280;1599;51.564;6.990;2024-01-25T09:42:18;102375.53;;;7.27;100.00
3176;BME280;1599;51.564;6.990;2024-01-25T09:44:44;102385.16;;;7.23;100.00
3176;BME280;1599;51.564;6.990;2024-01-25T09:47:10;102391.72;;;7.45;100.00
3176;BME280;1599;51.564;6.990;2024-01-25T09:49:37;102377.44;;;7.58;100.00
3176;BME280;1599;51.564;6.990;2024-01-25T09:52:04;102358.84;;;7.76;100.00
3176;BME280;1599;51.564;6.990;2024-01-25T09:54:34;102351.06;;;7.87;100.00
3176;BME280;1599;51.564;6.990;2024-01-25T09:57:07;102349.13;;;7.73;100.00
3176;BME280;1599;51.564;6.990;2024-01-25T09:59:34;102364.44;;;7.82;100.00
3176;BME280;1599;51.564;6.990;2024-01-25T10:02:01;102366.59;;;7.95;100.00
3176;BME280;1599;51.564;6.990;2024-01-25T10:04:27;102382.81;;;7.96;100.00
3176;BME280;1599;51.564;6.990;2024-01-25T10:06:56;102376.19;;;7.91;100.00
3176;BME280;1599;51.564;6.990;2024-01-25T10:09:22;102376.97;;;7.99;100.00
3176;BME280;1599;51.564;6.990;2024-01-25T10:11:48;102375.03;;;8.08;100.00
3176;BME280;1599;51.564;6.990;2024-01-25T10:14:14;102377.22;;;8.13;100.00
3176;BME280;1599;51.564;6.990;2024-01-25T10:16:40;102376.94;;;8.22;100.00
3176;BME280;1599;51.564;6.990;2024-01-25T10:19:09;102370.88;;;8.12;100.00
3176;BME280;1599;51.564;6.990;2024-01-25T10:21:36;102387.09;;;8.14;100.00
3176;BME280;1599;51.564;6.990;2024-01-25T10:24:02;102394.00;;;8.09;100.00
3176;BME280;1599;51.564;6.990;2024-01-25T10:26:29;102385.72;;;8.18;100.00
3176;BME280;1599;51.564;6.990;2024-01-25T10:28:55;102396.94;;;8.31;100.00
3176;BME280;1599;51.564;6.990;2024-01-25T10:31:23;102393.56;;;8.21;100.00
3176;BME280;1599;51.564;6.990;2024-01-25T10:33:55;102391.09;;;8.34;100.00
3176;BME280;1599;51.564;6.990;2024-01-25T10:36:22;102381.94;;;8.41;100.00
3176;BME280;1599;51.564;6.990;2024-01-25T10:38:53;102384.41;;;8.51;100.00
3176;BME280;1599;51.564;6.990;2024-01-25T10:41:19;102366.00;;;8.59;100.00
3176;BME280;1599;51.564;6.990;2024-01-25T10:43:45;102364.13;;;8.60;100.00
3176;BME280;1599;51.564;6.990;2024-01-25T10:46:11;102359.69;;;8.74;100.00
3176;BME280;1599;51.564;6.990;2024-01-25T10:48:37;102346.47;;;8.77;100.00
3176;BME280;1599;51.564;6.990;2024-01-25T10:51:04;102351.75;;;8.93;100.00
3176;BME280;1599;51.564;6.990;2024-01-25T10:53:34;102354.69;;;9.06;100.00
3176;BME280;1599;51.564;6.990;2024-01-25T10:56:01;102348.56;;;9.25;100.00
3176;BME280;1599;51.564;6.990;2024-01-25T10:58:31;102345.34;;;9.37;100.00
3176;BME280;1599;51.564;6.990;2024-01-25T11:01:08;102328.50;;;9.40;100.00
3176;BME280;1599;51.564;6.990;2024-01-25T11:03:36;102337.16;;;9.58;100.00
3176;BME280;1599;51.564;6.990;2024-01-25T11:06:12;102326.91;;;9.66;100.00
3176;BME280;1599;51.564;6.990;2024-01-25T11:08:38;102327.63;;;9.75;100.00
3176;BME280;1599;51.564;6.990;2024-01-25T11:11:13;102322.97;;;9.75;100.00
3176;BME280;1599;51.564;6.990;2024-01-25T11:13:43;102319.31;;;9.89;100.00
3176;BME280;1599;51.564;6.990;2024-01-25T11:16:17;102326.56;;;9.97;100.00
3176;BME280;1599;51.564;6.990;2024-01-25T11:18:55;102328.31;;;10.05;100.00
3176;BME280;1599;51.564;6.990;2024-01-25T11:21:41;102313.47;;;10.14;100.00
3176;BME280;1599;51.564;6.990;2024-01-25T11:24:24;102314.66;;;10.11;100.00
3176;BME280;1599;51.564;6.990;2024-01-25T11:26:54;102306.75;;;10.02;100.00
3176;BME280;1599;51.564;6.990;2024-01-25T11:29:21;102302.66;;;10.12;100.00
3176;BME280;1599;51.564;6.990;2024-01-25T11:31:50;102289.03;;;10.04;100.00
3176;BME280;1599;51.564;6.990;2024-01-25T11:34:16;102288.38;;;10.02;100.00
3176;BME280;1599;51.564;6.990;2024-01-25T11:36:44;102290.34;;;10.08;100.00
3176;BME280;1599;51.564;6.990;2024-01-25T11:39:14;102286.88;;;10.00;100.00
3176;BME280;1599;51.564;6.990;2024-01-25T11:41:42;102275.31;;;10.04;100.00
3176;BME280;1599;51.564;6.990;2024-01-25T11:44:10;102268.81;;;10.12;100.00
3176;BME280;1599;51.564;6.990;2024-01-25T11:46:36;102268.38;;;10.08;100.00
3176;BME280;1599;51.564;6.990;2024-01-25T11:49:02;102260.03;;;10.16;100.00
3176;BME280;1599;51.564;6.990;2024-01-25T11:51:28;102260.75;;;10.04;100.00
3176;BME280;1599;51.564;6.990;2024-01-25T11:53:54;102266.88;;;10.06;100.00
3176;BME280;1599;51.564;6.990;2024-01-25T11:56:25;102260.91;;;10.23;100.00
3176;BME280;1599;51.564;6.990;2024-01-25T11:58:52;102263.28;;;10.33;100.00
3176;BME280;1599;51.564;6.990;2024-01-25T12:01:19;102264.16;;;10.33;100.00
3176;BME280;1599;51.564;6.990;2024-01-25T12:03:45;102269.88;;;10.38;100.00
3176;BME280;1599;51.564;6.990;2024-01-25T12:06:12;102254.63;;;10.29;100.00
3176;BME280;1599;51.564;6.990;2024-01-25T12:08:38;102247.06;;;10.38;100.00
3176;BME280;1599;51.564;6.990;2024-01-25T12:11:10;102243.66;;;10.36;100.00
3176;BME280;1599;51.564;6.990;2024-01-25T12:13:39;102235.72;;;10.13;100.00
3176;BME280;1599;51.564;6.990;2024-01-25T12:16:06;102228.19;;;10.28;100.00
3176;BME280;1599;51.564;6.990;2024-01-25T12:18:33;102229.75;;;10.37;100.00
3176;BME280;1599;51.564;6.990;2024-01-25T12:21:02;102230.06;;;10.56;100.00
3176;BME280;1599;51.564;6.990;2024-01-25T12:23:40;102217.75;;;10.51;100.00
3176;BME280;1599;51.564;6.990;2024-01-25T12:26:10;102224.19;;;10.65;100.00
3176;BME280;1599;51.564;6.990;2024-01-25T12:28:37;102218.47;;;10.67;100.00
3176;BME280;1599;51.564;6.990;2024-01-25T12:31:05;102214.91;;;10.73;100.00
3176;BME280;1599;51.564;6.990;2024-01-25T12:33:32;102225.78;;;10.94;100.00
3176;BME280;1599;51.564;6.990;2024-01-25T12:35:58;102230.47;;;11.00;100.00
3176;BME280;1599;51.564;6.990;2024-01-25T12:38:24;102227.03;;;10.98;100.00
3176;BME280;1599;51.564;6.990;2024-01-25T12:40:52;102237.06;;;10.65;100.00
3176;BME280;1599;51.564;6.990;2024-01-25T12:43:19;102240.50;;;10.80;100.00
3176;BME280;1599;51.564;6.990;2024-01-25T12:45:46;102240.44;;;10.67;100.00
3176;BME280;1599;51.564;6.990;2024-01-25T12:48:12;102238.31;;;10.56;100.00
3176;BME280;1599;51.564;6.990;2024-01-25T12:50:39;102233.94;;;10.33;100.00
3176;BME280;1599;51.564;6.990;2024-01-25T12:53:05;102219.94;;;10.28;100.00
3176;BME280;1599;51.564;6.990;2024-01-25T12:55:32;102224.72;;;10.47;100.00
3176;BME280;1599;51.564;6.990;2024-01-25T12:57:59;102221.19;;;10.60;100.00
3176;BME280;1599;51.564;6.990;2024-01-25T13:00:25;102212.03;;;10.46;100.00
3176;BME280;1599;51.564;6.990;2024-01-25T13:02:51;102204.19;;;10.43;100.00
3176;BME280;1599;51.564;6.990;2024-01-25T13:05:17;102210.13;;;10.47;100.00
3176;BME280;1599;51.564;6.990;2024-01-25T13:07:43;102209.03;;;10.41;100.00